Etusivu
METAR-TAF:

METAR-TAF

Lentoasemat :

Draughon-Miller Central Texas Regional Airport

Temple, Texas, Yhdysvallat

Leveyspiiri: 31-09N, Pituuspiiri: 097-24W, korkeus merenpinnasta: 208 m

Tämänhetkinen sää

Tämä raportti tehtiin 38 minuuttia sitten, kello 17.51 UTC
Tuuli 9 kn etelästä puuskistuen 17 kn:hen
Lämpötila 34°C
Kosteus 50%
Ilmanpaine 1016 hPa
Näkyvyys: 16.1 km
selkeää

METAR: KTPL 151751Z AUTO 17009G17KT 10SM CLR 34/22 A3001 RMK AO2 SLP148 T03390217 10344 20250 50006

Aika: 13:29 (18:29 UTC)


TAF: puuttuu

Säähavainnot ja -ennusteet yli 4000 lentoasemalta (METAR- ja TAF-raportit).

Käytössä olevat sääasemat on merkitty karttaan keltaisilla ja punaisilla pisteillä.

Aseta hiiri pisteen päälle nähdäksesi sääaseman nimen.

Klikkaa sitten nähdäksesi säähavainnot ja -ennusteet.

Kartan vaihtaminen: klikkaa mustalla rastilla varustettuja vihreitä pisteitä, niin voit zoomata sisään; viivalla varustettua vihreää pistettä, niin voit zoomata ulos tai vihreitä nuolia, niin pääset viereisille kartoille.


METAR-TAF: